Time;durP1;ratioP1;P1;durP2;ratioP2;P2;SDS_P1;SDS_P2;PMS_P1;PMS_P2;Temp;Humidity;BMP_temperature;BMP_pressure;BME280_temperature;BME280_humidity;BME280_pressure;Samples;Min_cycle;Max_cycle;Signal;HPM_P1;HPM_P2
2023/03/03 00:00:36;;;;;;;;;;;;;;;-0.33;93.92;99457.13;5052899;28;19928;-80
2023/03/03 00:03:03;;;;;;;;;;;;;;;-0.99;93.86;99455.41;5052808;28;21133;-80
2023/03/03 00:05:30;;;;;;;;;;;;;;;-0.91;94.55;99451.97;5069219;28;19931;-80
2023/03/03 00:07:55;;;;;;;;;;;;;;;-0.28;93.27;99441.69;5055114;28;19939;-80
2023/03/03 00:10:21;;;;;;;;;;;;;;;-0.28;91.74;99449.56;5056425;28;20372;-80
2023/03/03 00:12:47;;;;;;;;;;;;;;;-0.78;92.21;99454.94;5055997;28;20544;-80
2023/03/03 00:15:14;;;;;;;;;;;;;;;-1.12;94.42;99449.81;5055329;28;20321;-80
2023/03/03 00:17:39;;;;;;;;;;;;;;;-0.84;93.48;99447.75;5059457;28;20009;-80
2023/03/03 00:20:24;;;;;;;;;;;;;;;-0.93;94.81;99456.56;5036785;28;19967;-81
2023/03/03 00:22:50;;;;;;;;;;;;;;;-0.83;93.98;99460.66;5059428;28;19921;-81
2023/03/03 00:25:18;;;;;;;;;;;;;;;-0.60;93.47;99463.50;5057863;28;19928;-81
2023/03/03 00:27:43;;;;;;;;;;;;;;;-0.84;93.00;99452.97;5072441;28;19920;-82
2023/03/03 00:30:38;;;;;;;;;;;;;;;-1.12;94.16;99451.59;5061318;28;19928;-82
2023/03/03 00:33:12;;;;;;;;;;;;;;;-1.22;93.84;99456.16;5059957;28;20005;-81
2023/03/03 00:35:38;;;;;;;;;;;;;;;-0.32;92.05;99445.63;5056033;28;19921;-82
2023/03/03 00:38:11;;;;;;;;;;;;;;;-0.56;92.04;99446.47;5055859;28;19929;-82
2023/03/03 00:40:38;;;;;;;;;;;;;;;0.49;89.45;99435.81;5052717;28;19928;-81
2023/03/03 00:43:23;;;;;;;;;;;;;;;-0.40;89.88;99443.84;5058410;28;22078;-81
2023/03/03 00:45:52;;;;;;;;;;;;;;;-0.82;92.10;99451.03;5058718;28;20000;-82
2023/03/03 00:48:23;;;;;;;;;;;;;;;-0.87;92.51;99454.13;5055174;28;19925;-82
2023/03/03 00:50:50;;;;;;;;;;;;;;;-0.79;93.58;99461.97;5055914;28;19968;-82
2023/03/03 00:53:17;;;;;;;;;;;;;;;-0.74;92.19;99458.88;5055565;28;19941;-82
2023/03/03 00:55:43;;;;;;;;;;;;;;;-0.11;92.39;99459.88;5058434;28;20372;-82
2023/03/03 00:58:08;;;;;;;;;;;;;;;-0.86;90.96;99450.53;5053242;28;19931;-82
2023/03/03 01:00:33;;;;;;;;;;;;;;;-1.10;92.55;99454.88;5049169;28;19929;-82
2023/03/03 01:03:00;;;;;;;;;;;;;;;-1.45;94.14;99455.09;5033407;28;19921;-82
2023/03/03 01:05:26;;;;;;;;;;;;;;;-1.12;94.35;99444.56;5067397;28;19920;-82
2023/03/03 01:07:51;;;;;;;;;;;;;;;-1.43;94.96;99453.13;5031351;28;19947;-82
2023/03/03 01:10:16;;;;;;;;;;;;;;;-1.61;95.77;99459.25;5065434;28;19913;-81
2023/03/03 01:12:42;;;;;;;;;;;;;;;-1.62;95.89;99469.91;5054114;28;19924;-81
2023/03/03 01:15:09;;;;;;;;;;;;;;;-1.18;95.71;99466.13;5054818;28;20395;-82
2023/03/03 01:17:35;;;;;;;;;;;;;;;-1.72;96.00;99466.56;5056273;28;20380;-81
2023/03/03 01:20:00;;;;;;;;;;;;;;;-1.84;96.27;99463.41;5052481;28;19928;-81
2023/03/03 01:22:26;;;;;;;;;;;;;;;-1.23;96.22;99459.75;5054936;28;19929;-82
2023/03/03 01:24:51;;;;;;;;;;;;;;;-1.47;95.46;99452.63;5051924;28;19929;-82
2023/03/03 01:27:16;;;;;;;;;;;;;;;-1.39;95.21;99446.59;5045076;28;19970;-81
2023/03/03 01:29:41;;;;;;;;;;;;;;;-0.79;93.51;99451.50;5048429;28;19928;-81
2023/03/03 01:32:07;;;;;;;;;;;;;;;-0.64;92.09;99443.84;5050094;28;20403;-81
2023/03/03 01:34:32;;;;;;;;;;;;;;;-1.24;92.04;99431.91;5057099;28;20344;-81
2023/03/03 01:36:58;;;;;;;;;;;;;;;-1.71;94.59;99435.03;5054830;28;19924;-82
2023/03/03 01:39:23;;;;;;;;;;;;;;;-1.28;94.08;99425.34;5060015;28;19923;-82
2023/03/03 01:41:48;;;;;;;;;;;;;;;-1.35;93.93;99434.81;5055161;28;19929;-82
2023/03/03 01:44:14;;;;;;;;;;;;;;;-1.42;93.97;99434.63;5074909;28;20402;-82
2023/03/03 01:46:39;;;;;;;;;;;;;;;-1.42;94.16;99424.16;5058659;28;20379;-81
2023/03/03 01:49:10;;;;;;;;;;;;;;;-1.29;94.65;99421.94;5064699;28;19924;-81
2023/03/03 01:51:38;;;;;;;;;;;;;;;-1.00;93.44;99409.22;5051924;28;19970;-82
2023/03/03 01:54:10;;;;;;;;;;;;;;;-1.24;93.04;99414.41;5049460;28;19921;-81
2023/03/03 01:56:35;;;;;;;;;;;;;;;-1.44;93.47;99420.09;5055269;28;19928;-80
2023/03/03 01:59:03;;;;;;;;;;;;;;;-1.03;94.17;99419.22;5051423;28;19929;-82
2023/03/03 02:01:30;;;;;;;;;;;;;;;-1.27;93.69;99419.16;5048760;28;19925;-82
2023/03/03 02:03:56;;;;;;;;;;;;;;;-1.34;93.25;99429.44;5061268;28;19925;-82
2023/03/03 02:06:23;;;;;;;;;;;;;;;-0.44;93.10;99426.81;5047503;28;20304;-81
2023/03/03 02:09:00;;;;;;;;;;;;;;;-1.02;92.28;99424.28;5052088;28;20372;-81
2023/03/03 02:11:28;;;;;;;;;;;;;;;-1.64;93.79;99419.53;5063106;28;20000;-80
2023/03/03 02:13:53;;;;;;;;;;;;;;;-1.15;92.44;99417.88;5069944;28;20032;-81
2023/03/03 02:16:18;;;;;;;;;;;;;;;-0.58;91.37;99413.53;5056497;28;20011;-81
2023/03/03 02:18:44;;;;;;;;;;;;;;;-0.57;91.31;99415.19;5046800;28;19951;-81
2023/03/03 02:21:11;;;;;;;;;;;;;;;0.67;87.32;99415.38;5056917;28;20338;-82
2023/03/03 02:23:55;;;;;;;;;;;;;;;-0.33;87.09;99426.47;5053619;28;19925;-81
2023/03/03 02:26:21;;;;;;;;;;;;;;;-0.99;89.94;99423.16;5062601;28;20438;-81
2023/03/03 02:28:47;;;;;;;;;;;;;;;-0.74;90.65;99443.16;5051934;28;19921;-80
2023/03/03 02:31:14;;;;;;;;;;;;;;;-0.75;90.83;99444.16;5050806;28;19925;-81
2023/03/03 02:33:44;;;;;;;;;;;;;;;-1.25;92.00;99444.22;5053454;28;20368;-82
2023/03/03 02:36:13;;;;;;;;;;;;;;;-1.35;92.73;99446.13;5066166;28;19928;-82
2023/03/03 02:38:42;;;;;;;;;;;;;;;-1.57;93.82;99441.44;5054249;28;19932;-82
2023/03/03 02:41:27;;;;;;;;;;;;;;;-1.35;94.16;99453.16;5049063;28;19954;-82
2023/03/03 02:43:55;;;;;;;;;;;;;;;-1.67;94.34;99453.84;5066276;28;19939;-82
2023/03/03 02:46:20;;;;;;;;;;;;;;;-1.63;95.57;99449.94;5064713;28;20360;-82
2023/03/03 02:48:46;;;;;;;;;;;;;;;-1.91;96.34;99453.69;5068524;28;19927;-82
2023/03/03 02:51:11;;;;;;;;;;;;;;;-1.39;95.25;99454.44;5054983;28;19925;-81
2023/03/03 02:53:36;;;;;;;;;;;;;;;-1.84;95.97;99459.97;5049899;28;19924;-81
2023/03/03 02:56:03;;;;;;;;;;;;;;;-1.63;94.72;99445.53;5052525;28;19963;-82
2023/03/03 02:58:28;;;;;;;;;;;;;;;-2.32;97.15;99458.66;5061251;28;20292;-81
2023/03/03 03:00:54;;;;;;;;;;;;;;;-1.53;95.82;99448.81;5049438;28;19920;-81
2023/03/03 03:03:19;;;;;;;;;;;;;;;-2.04;95.79;99463.75;5050857;28;19924;-81
2023/03/03 03:05:44;;;;;;;;;;;;;;;-1.70;95.49;99460.19;5044086;28;20327;-81
2023/03/03 03:08:10;;;;;;;;;;;;;;;-1.83;95.42;99457.19;5048723;28;19947;-80
2023/03/03 03:10:35;;;;;;;;;;;;;;;-1.69;95.22;99461.03;5052071;28;20027;-81
2023/03/03 03:13:00;;;;;;;;;;;;;;;-1.29;93.61;99447.31;5051410;28;19916;-81
2023/03/03 03:15:26;;;;;;;;;;;;;;;-1.87;95.56;99448.00;5060533;28;20594;-81
2023/03/03 03:17:51;;;;;;;;;;;;;;;-2.04;96.40;99448.88;5063607;28;19921;-81
2023/03/03 03:20:17;;;;;;;;;;;;;;;-1.76;96.25;99442.50;5058438;28;19920;-81
2023/03/03 03:22:42;;;;;;;;;;;;;;;-1.19;95.67;99440.13;5050243;28;19992;-81
2023/03/03 03:25:07;;;;;;;;;;;;;;;-0.44;93.41;99446.97;5071062;28;20297;-82
2023/03/03 03:27:32;;;;;;;;;;;;;;;-1.55;91.95;99445.56;5046651;28;19923;-82
2023/03/03 03:29:58;;;;;;;;;;;;;;;-1.37;93.45;99448.06;5054589;28;19933;-82
2023/03/03 03:32:23;;;;;;;;;;;;;;;-0.37;90.79;99443.50;5056131;28;19924;-82
2023/03/03 03:34:48;;;;;;;;;;;;;;;-1.16;90.87;99447.66;5043311;28;19933;-82
2023/03/03 03:37:14;;;;;;;;;;;;;;;-1.78;93.10;99464.56;5039557;28;20300;-81
2023/03/03 03:39:39;;;;;;;;;;;;;;;-0.98;92.80;99454.41;5047154;28;19925;-81
2023/03/03 03:42:04;;;;;;;;;;;;;;;-0.93;91.93;99443.47;5051518;28;19925;-83
2023/03/03 03:44:30;;;;;;;;;;;;;;;-1.61;91.78;99456.66;5051890;28;19927;-82
2023/03/03 03:46:55;;;;;;;;;;;;;;;-1.86;94.71;99470.59;5049872;28;19921;-82
2023/03/03 03:49:20;;;;;;;;;;;;;;;-1.63;94.11;99463.00;5046571;28;20402;-82
2023/03/03 03:51:46;;;;;;;;;;;;;;;-1.41;93.50;99459.84;5061401;28;20062;-81
2023/03/03 03:54:11;;;;;;;;;;;;;;;-1.65;93.32;99470.19;5045346;28;19967;-82
2023/03/03 03:56:36;;;;;;;;;;;;;;;-1.22;92.86;99456.16;5062564;28;19932;-81
2023/03/03 03:59:02;;;;;;;;;;;;;;;-1.44;94.15;99451.50;5049001;28;19921;-80
2023/03/03 04:01:27;;;;;;;;;;;;;;;-1.22;92.60;99462.22;5043320;28;19925;-81
2023/03/03 04:03:52;;;;;;;;;;;;;;;-1.07;92.86;99454.56;5046350;28;19927;-81
2023/03/03 04:06:18;;;;;;;;;;;;;;;-1.09;92.56;99449.47;5050754;28;19924;-82
2023/03/03 04:08:43;;;;;;;;;;;;;;;-1.56;92.66;99450.94;5052145;28;19943;-82
2023/03/03 04:11:08;;;;;;;;;;;;;;;-2.01;93.69;99464.25;5048577;28;19986;-82
2023/03/03 04:13:34;;;;;;;;;;;;;;;-2.00;94.48;99457.22;5049482;28;20015;-81
2023/03/03 04:15:59;;;;;;;;;;;;;;;-0.43;91.05;99451.22;5058596;28;19983;-82
2023/03/03 04:18:25;;;;;;;;;;;;;;;-0.27;88.91;99453.84;5048554;28;19920;-82
2023/03/03 04:20:51;;;;;;;;;;;;;;;-1.51;92.30;99457.34;5048001;28;19987;-82
2023/03/03 04:23:18;;;;;;;;;;;;;;;-1.39;92.03;99457.06;5057115;28;20673;-81
2023/03/03 04:25:44;;;;;;;;;;;;;;;-1.61;93.71;99459.25;5046929;28;19921;-80
2023/03/03 04:28:09;;;;;;;;;;;;;;;-1.84;93.56;99447.72;5062650;28;20039;-81
2023/03/03 04:30:35;;;;;;;;;;;;;;;-2.01;95.14;99453.78;5041597;28;20095;-80
2023/03/03 04:33:00;;;;;;;;;;;;;;;-2.15;96.08;99464.81;5068051;28;19925;-81
2023/03/03 04:35:25;;;;;;;;;;;;;;;-2.50;96.55;99460.47;5050468;28;19924;-81
2023/03/03 04:37:51;;;;;;;;;;;;;;;-1.93;97.20;99466.94;5049756;28;19970;-80
2023/03/03 04:40:17;;;;;;;;;;;;;;;-2.28;95.80;99457.38;5038824;28;19920;-80
2023/03/03 04:42:42;;;;;;;;;;;;;;;-2.06;96.60;99456.06;5057538;28;19992;-81
2023/03/03 04:45:08;;;;;;;;;;;;;;;-2.25;96.40;99461.50;5052263;28;19967;-82
2023/03/03 04:47:33;;;;;;;;;;;;;;;-1.80;96.28;99472.59;5051684;28;20345;-82
2023/03/03 04:49:58;;;;;;;;;;;;;;;-1.88;95.04;99467.28;5054244;28;19935;-81
2023/03/03 04:52:24;;;;;;;;;;;;;;;-2.04;95.48;99472.44;5051681;28;20288;-81
2023/03/03 04:54:49;;;;;;;;;;;;;;;-2.12;95.84;99467.16;5057328;28;19929;-81
2023/03/03 04:57:14;;;;;;;;;;;;;;;-0.59;94.34;99459.09;5037757;28;19990;-82
2023/03/03 04:59:39;;;;;;;;;;;;;;;-0.84;89.07;99461.66;5045911;28;19924;-81
2023/03/03 05:02:05;;;;;;;;;;;;;;;-1.85;92.23;99469.59;5049771;28;19909;-80
2023/03/03 05:04:30;;;;;;;;;;;;;;;-2.06;93.50;99463.91;5070456;28;19925;-81
2023/03/03 05:06:56;;;;;;;;;;;;;;;-2.30;95.68;99469.78;5064659;28;19923;-82
2023/03/03 05:09:21;;;;;;;;;;;;;;;-2.06;95.36;99477.00;5058490;28;19943;-81
2023/03/03 05:11:47;;;;;;;;;;;;;;;-1.90;95.79;99471.84;5054945;28;19917;-81
2023/03/03 05:14:12;;;;;;;;;;;;;;;-1.62;94.98;99475.94;5057601;28;19927;-80
2023/03/03 05:16:37;;;;;;;;;;;;;;;-1.15;93.62;99468.44;5071114;28;20047;-82
2023/03/03 05:19:03;;;;;;;;;;;;;;;0.12;89.91;99469.69;5047056;28;20024;-82
2023/03/03 05:21:28;;;;;;;;;;;;;;;-0.84;88.92;99472.16;5054259;28;19972;-82
2023/03/03 05:23:53;;;;;;;;;;;;;;;-0.09;88.02;99478.09;5053898;28;19928;-82
2023/03/03 05:26:18;;;;;;;;;;;;;;;0.23;86.42;99474.59;5052621;28;19925;-82
2023/03/03 05:28:43;;;;;;;;;;;;;;;0.12;85.44;99488.06;5046341;28;19960;-82
2023/03/03 05:31:09;;;;;;;;;;;;;;;1.02;82.82;99475.31;5052025;28;20354;-81
2023/03/03 05:33:34;;;;;;;;;;;;;;;0.42;82.85;99479.47;5072790;28;19943;-82
2023/03/03 05:35:59;;;;;;;;;;;;;;;0.58;84.33;99476.81;5034700;28;20285;-81
2023/03/03 05:38:24;;;;;;;;;;;;;;;0.45;85.47;99474.72;5054067;28;20022;-81
2023/03/03 05:40:50;;;;;;;;;;;;;;;-0.46;84.58;99473.31;5048103;28;19928;-81
2023/03/03 05:43:15;;;;;;;;;;;;;;;-0.03;87.52;99478.25;5049029;28;19920;-82
2023/03/03 05:45:40;;;;;;;;;;;;;;;-0.75;86.46;99483.47;5045960;28;20407;-82
2023/03/03 05:48:06;;;;;;;;;;;;;;;-1.34;89.90;99484.44;5065186;28;19995;-82
2023/03/03 05:50:31;;;;;;;;;;;;;;;-1.49;91.01;99479.94;5052555;28;19929;-82
2023/03/03 05:52:57;;;;;;;;;;;;;;;-1.78;91.45;99491.56;5068194;28;19923;-82
2023/03/03 05:55:22;;;;;;;;;;;;;;;-1.69;93.30;99500.28;5051029;28;19921;-82
2023/03/03 05:57:47;;;;;;;;;;;;;;;-1.76;91.97;99504.47;5064554;28;19950;-82
2023/03/03 06:00:13;;;;;;;;;;;;;;;-2.13;92.82;99504.72;5047595;28;19964;-82
2023/03/03 06:02:39;;;;;;;;;;;;;;;-1.68;93.19;99510.56;5049665;28;19928;-82
2023/03/03 06:05:04;;;;;;;;;;;;;;;-1.60;92.95;99509.81;5053189;28;21855;-82
2023/03/03 06:07:29;;;;;;;;;;;;;;;-1.23;91.63;99510.34;5071527;28;20391;-82
2023/03/03 06:09:54;;;;;;;;;;;;;;;-1.69;91.72;99518.59;5062937;28;19927;-82
2023/03/03 06:12:21;;;;;;;;;;;;;;;-1.42;92.94;99517.59;5035182;28;19940;-82
2023/03/03 06:14:47;;;;;;;;;;;;;;;-2.27;92.79;99519.13;5049261;28;19970;-83
2023/03/03 06:17:13;;;;;;;;;;;;;;;-2.47;93.57;99522.06;5053282;28;19943;-81
2023/03/03 06:19:40;;;;;;;;;;;;;;;-2.17;94.94;99516.44;5070493;28;20580;-81
2023/03/03 06:22:05;;;;;;;;;;;;;;;-1.30;92.46;99511.09;5058536;28;19925;-82
2023/03/03 06:24:31;;;;;;;;;;;;;;;-1.64;93.55;99518.97;5071774;28;19938;-82
2023/03/03 06:26:56;;;;;;;;;;;;;;;-1.80;93.83;99524.06;5050912;28;19921;-81
2023/03/03 06:29:22;;;;;;;;;;;;;;;-1.72;93.31;99529.34;5069376;28;19924;-82
2023/03/03 06:31:47;;;;;;;;;;;;;;;-1.83;93.03;99534.84;5055735;28;19923;-82
2023/03/03 06:34:12;;;;;;;;;;;;;;;-2.06;93.13;99521.44;5059894;28;19920;-83
2023/03/03 06:36:38;;;;;;;;;;;;;;;-2.02;93.61;99521.94;5058741;28;19916;-82
2023/03/03 06:39:03;;;;;;;;;;;;;;;-1.79;93.13;99526.53;5056176;28;19916;-83
2023/03/03 06:41:28;;;;;;;;;;;;;;;-2.24;92.73;99519.81;5052856;28;19933;-82
2023/03/03 06:43:53;;;;;;;;;;;;;;;-1.87;93.86;99523.88;5065826;28;19924;-81
2023/03/03 06:46:19;;;;;;;;;;;;;;;-2.33;94.35;99524.16;5053482;28;19929;-83
2023/03/03 06:48:44;;;;;;;;;;;;;;;-2.03;94.87;99528.97;5039687;28;19940;-82
2023/03/03 06:51:19;;;;;;;;;;;;;;;-0.85;91.92;99522.06;5055924;28;19935;-82
2023/03/03 06:53:44;;;;;;;;;;;;;;;-0.42;89.08;99524.47;5050343;28;19921;-83
2023/03/03 06:56:10;;;;;;;;;;;;;;;-1.09;89.09;99528.06;5057014;28;20059;-82
2023/03/03 06:58:35;;;;;;;;;;;;;;;-0.52;87.58;99520.34;5069376;28;19932;-82
2023/03/03 07:01:00;;;;;;;;;;;;;;;0.29;85.84;99515.94;5057552;28;20010;-83
2023/03/03 07:03:32;;;;;;;;;;;;;;;0.21;85.00;99516.78;5050950;28;20342;-82
2023/03/03 07:05:57;;;;;;;;;;;;;;;0.63;83.50;99519.94;5053198;28;19920;-81
2023/03/03 07:08:23;;;;;;;;;;;;;;;0.47;82.94;99527.88;5046555;28;19924;-83
2023/03/03 07:10:50;;;;;;;;;;;;;;;0.51;83.99;99528.34;5071147;28;19925;-82
2023/03/03 07:13:17;;;;;;;;;;;;;;;0.46;83.99;99523.59;5046460;28;19963;-81
2023/03/03 07:15:42;;;;;;;;;;;;;;;-0.10;82.65;99531.53;5067190;28;19929;-81
2023/03/03 07:18:21;;;;;;;;;;;;;;;-0.21;85.59;99542.34;5067868;28;20303;-81
2023/03/03 07:20:46;;;;;;;;;;;;;;;-0.96;85.59;99545.97;5046396;28;19944;-81
2023/03/03 07:23:19;;;;;;;;;;;;;;;-0.97;88.91;99546.94;5046372;28;20368;-82
2023/03/03 07:25:45;;;;;;;;;;;;;;;-0.78;87.94;99557.97;5054047;28;20007;-81
2023/03/03 07:28:16;;;;;;;;;;;;;;;-1.15;88.53;99573.22;5047779;28;19960;-81
2023/03/03 07:30:42;;;;;;;;;;;;;;;-1.18;89.23;99578.75;5068665;28;19992;-80
2023/03/03 07:33:16;;;;;;;;;;;;;;;-2.07;91.11;99573.88;5049443;28;20416;-80
2023/03/03 07:35:42;;;;;;;;;;;;;;;-1.70;92.49;99592.81;5066262;28;19924;-81
2023/03/03 07:38:31;;;;;;;;;;;;;;;-1.10;91.46;99585.84;5051782;28;19917;-81
2023/03/03 07:40:58;;;;;;;;;;;;;;;-1.44;89.68;99590.22;5036981;28;19925;-81
2023/03/03 07:43:37;;;;;;;;;;;;;;;-1.99;91.19;99593.09;5050055;28;20369;-81
2023/03/03 07:46:21;;;;;;;;;;;;;;;-2.41;94.24;99600.69;5048270;28;19921;-81
2023/03/03 07:48:47;;;;;;;;;;;;;;;-1.14;92.48;99603.69;5065039;28;19920;-81
2023/03/03 07:51:25;;;;;;;;;;;;;;;-2.03;90.91;99601.38;5049753;28;20418;-82
2023/03/03 07:53:51;;;;;;;;;;;;;;;-2.22;93.56;99596.28;5047549;28;20381;-82
2023/03/03 07:56:27;;;;;;;;;;;;;;;-1.05;90.06;99601.91;5051092;28;19921;-81
2023/03/03 07:58:54;;;;;;;;;;;;;;;-1.01;89.78;99603.25;5042172;28;19962;-81
2023/03/03 08:01:23;;;;;;;;;;;;;;;-1.37;88.03;99602.53;5048420;28;19939;-82
2023/03/03 08:03:49;;;;;;;;;;;;;;;-1.99;91.24;99603.56;5067143;28;19917;-82
2023/03/03 08:06:39;;;;;;;;;;;;;;;-1.29;92.37;99604.41;5044902;28;19980;-82
2023/03/03 08:09:10;;;;;;;;;;;;;;;-1.25;90.50;99611.78;5045554;28;19943;-82
2023/03/03 08:11:55;;;;;;;;;;;;;;;-1.87;91.08;99607.56;5070931;28;20394;-81
2023/03/03 08:14:25;;;;;;;;;;;;;;;-1.31;91.87;99609.78;5021745;28;20007;-81
2023/03/03 08:16:50;;;;;;;;;;;;;;;-1.86;92.11;99613.63;5054002;28;19927;-80
2023/03/03 08:19:16;;;;;;;;;;;;;;;-1.83;91.75;99613.31;5055594;28;19916;-80
2023/03/03 08:21:41;;;;;;;;;;;;;;;-1.59;92.02;99618.75;5074993;28;20312;-82
2023/03/03 08:24:07;;;;;;;;;;;;;;;-1.52;90.71;99614.53;5047611;28;19921;-82
2023/03/03 08:26:32;;;;;;;;;;;;;;;-0.70;89.33;99607.00;5050550;28;19971;-82
2023/03/03 08:28:57;;;;;;;;;;;;;;;-0.85;87.39;99611.16;5068210;28;20406;-82
2023/03/03 08:31:22;;;;;;;;;;;;;;;-1.24;89.28;99613.41;5070134;28;20280;-83
2023/03/03 08:33:48;;;;;;;;;;;;;;;-1.10;89.96;99612.84;5049235;28;19956;-82
2023/03/03 08:36:13;;;;;;;;;;;;;;;-1.53;89.38;99611.09;5056821;28;20370;-81
2023/03/03 08:38:39;;;;;;;;;;;;;;;-1.69;90.40;99611.00;5051584;28;20424;-81
2023/03/03 08:41:05;;;;;;;;;;;;;;;-1.39;90.29;99619.38;5072993;28;19921;-82
2023/03/03 08:43:31;;;;;;;;;;;;;;;-1.68;91.06;99617.84;5068367;28;19939;-82
2023/03/03 08:45:58;;;;;;;;;;;;;;;-0.71;90.73;99613.19;5054468;28;19956;-82
2023/03/03 08:48:23;;;;;;;;;;;;;;;-0.96;89.51;99617.50;5053951;28;19921;-82
2023/03/03 08:50:48;;;;;;;;;;;;;;;-1.20;90.01;99616.56;5071581;28;19928;-81
2023/03/03 08:53:15;;;;;;;;;;;;;;;-1.22;90.73;99615.91;5056980;28;20019;-80
2023/03/03 08:55:40;;;;;;;;;;;;;;;-1.46;91.27;99613.94;5068146;28;19920;-82
2023/03/03 08:58:06;;;;;;;;;;;;;;;-1.80;92.02;99613.84;5058395;28;19917;-81
2023/03/03 09:00:31;;;;;;;;;;;;;;;-1.51;91.48;99635.31;5064293;28;19932;-81
2023/03/03 09:02:56;;;;;;;;;;;;;;;-0.78;90.54;99617.41;5060882;28;19936;-82
2023/03/03 09:05:23;;;;;;;;;;;;;;;-0.14;88.41;99612.38;5054903;28;19925;-82
2023/03/03 09:07:50;;;;;;;;;;;;;;;0.56;86.52;99613.56;5068674;28;19940;-82
2023/03/03 09:10:17;;;;;;;;;;;;;;;1.17;83.61;99609.47;5055070;28;19935;-82
2023/03/03 09:12:47;;;;;;;;;;;;;;;-0.59;85.52;99616.38;5049852;28;20011;-81
2023/03/03 09:15:18;;;;;;;;;;;;;;;-0.92;88.28;99620.66;5063446;28;19952;-81
2023/03/03 09:17:43;;;;;;;;;;;;;;;-1.20;88.48;99627.84;5059062;28;19927;-81
2023/03/03 09:20:23;;;;;;;;;;;;;;;-1.15;89.86;99622.97;5064515;28;19925;-81
2023/03/03 09:22:49;;;;;;;;;;;;;;;-1.05;89.12;99626.28;5053385;28;19926;-81
2023/03/03 09:25:25;;;;;;;;;;;;;;;-0.52;87.63;99614.72;5064427;28;19924;-80
2023/03/03 09:27:52;;;;;;;;;;;;;;;1.28;84.12;99609.91;5046144;28;20292;-82
2023/03/03 09:30:23;;;;;;;;;;;;;;;0.23;83.22;99625.03;5052099;28;20003;-83
2023/03/03 09:32:48;;;;;;;;;;;;;;;-0.82;87.04;99637.88;5064368;28;19916;-81
2023/03/03 09:35:34;;;;;;;;;;;;;;;0.50;86.94;99631.78;5069971;28;19965;-81
2023/03/03 09:38:01;;;;;;;;;;;;;;;0.70;85.18;99633.03;5071452;28;19917;-82
2023/03/03 09:40:46;;;;;;;;;;;;;;;1.28;83.84;99638.84;5054046;28;20372;-81
2023/03/03 09:43:16;;;;;;;;;;;;;;;-0.21;85.26;99642.84;5052553;28;19920;-81
2023/03/03 09:46:00;;;;;;;;;;;;;;;0.27;84.69;99639.47;5051939;28;20389;-81
2023/03/03 09:48:39;;;;;;;;;;;;;;;0.18;84.54;99637.81;5050473;28;19917;-82
2023/03/03 09:51:08;;;;;;;;;;;;;;;-0.01;85.55;99640.75;5054687;28;19920;-82
2023/03/03 09:53:33;;;;;;;;;;;;;;;0.66;85.19;99629.94;5071315;28;20373;-80
2023/03/03 09:56:08;;;;;;;;;;;;;;;0.13;86.13;99631.44;5056155;28;19924;-80
2023/03/03 09:58:33;;;;;;;;;;;;;;;-0.37;86.11;99648.03;5054895;28;19917;-80
2023/03/03 10:01:07;;;;;;;;;;;;;;;-0.68;88.42;99644.34;5051796;28;19929;-82
2023/03/03 10:03:35;;;;;;;;;;;;;;;-0.96;88.95;99646.31;5059781;28;19947;-82
2023/03/03 10:06:10;;;;;;;;;;;;;;;-0.62;88.11;99641.09;5072310;28;19920;-82
2023/03/03 10:08:51;;;;;;;;;;;;;;;0.42;85.97;99643.09;5069510;28;19917;-82
2023/03/03 10:11:18;;;;;;;;;;;;;;;-0.44;86.47;99641.00;5039805;28;20335;-83
2023/03/03 10:13:43;;;;;;;;;;;;;;;-0.38;87.00;99649.03;5054562;28;19991;-81
2023/03/03 10:16:16;;;;;;;;;;;;;;;0.44;87.28;99643.75;5045548;28;20367;-81
2023/03/03 10:18:42;;;;;;;;;;;;;;;0.70;83.37;99640.94;5062229;28;19917;-82
2023/03/03 10:21:27;;;;;;;;;;;;;;;1.23;82.01;99641.16;5043665;28;20513;-82
2023/03/03 10:24:06;;;;;;;;;;;;;;;1.60;82.47;99642.31;5052570;28;19916;-81
2023/03/03 10:26:50;;;;;;;;;;;;;;;1.13;80.48;99643.16;5051456;28;19966;-82
2023/03/03 10:29:32;;;;;;;;;;;;;;;0.24;82.85;99641.63;5070197;28;20027;-81
2023/03/03 10:32:00;;;;;;;;;;;;;;;-0.30;85.15;99642.97;5054754;28;19912;-82
2023/03/03 10:34:38;;;;;;;;;;;;;;;0.96;85.59;99641.53;5067965;28;20015;-82
2023/03/03 10:37:12;;;;;;;;;;;;;;;1.16;84.60;99645.44;5054245;28;19912;-81
2023/03/03 10:39:41;;;;;;;;;;;;;;;0.74;83.09;99644.88;5069153;28;20456;-82
2023/03/03 10:42:24;;;;;;;;;;;;;;;1.21;80.76;99648.38;5050321;28;20371;-82
2023/03/03 10:45:10;;;;;;;;;;;;;;;1.95;80.28;99645.25;5045784;28;19925;-83
2023/03/03 10:47:45;;;;;;;;;;;;;;;1.73;80.46;99642.56;5045430;28;20557;-82
2023/03/03 10:50:33;;;;;;;;;;;;;;;1.20;80.76;99649.38;5063502;28;19975;-82
2023/03/03 10:53:17;;;;;;;;;;;;;;;0.31;82.25;99650.47;5038784;28;19913;-82
2023/03/03 10:55:45;;;;;;;;;;;;;;;0.91;84.74;99648.31;5068929;28;20015;-82
2023/03/03 10:58:19;;;;;;;;;;;;;;;1.42;81.34;99650.47;5070407;28;20346;-83
2023/03/03 11:00:48;;;;;;;;;;;;;;;2.34;79.55;99652.25;5050076;28;19917;-83
2023/03/03 11:03:32;;;;;;;;;;;;;;;2.63;77.94;99653.16;5064674;28;19923;-80
2023/03/03 11:05:58;;;;;;;;;;;;;;;2.65;77.27;99651.16;5055673;28;20047;-83
2023/03/03 11:08:40;;;;;;;;;;;;;;;1.65;77.88;99653.16;5068887;28;19971;-81
2023/03/03 11:11:20;;;;;;;;;;;;;;;2.01;79.43;99654.28;5041795;28;19919;-82
2023/03/03 11:13:53;;;;;;;;;;;;;;;1.84;80.99;99658.81;5049612;28;19913;-83
2023/03/03 11:16:21;;;;;;;;;;;;;;;2.42;78.53;99660.91;5051955;28;19916;-82
2023/03/03 11:19:02;;;;;;;;;;;;;;;1.62;78.96;99653.50;5062420;28;19947;-82
2023/03/03 11:21:50;;;;;;;;;;;;;;;1.86;79.57;99656.00;5057591;28;19921;-82
2023/03/03 11:24:34;;;;;;;;;;;;;;;1.74;78.87;99644.22;5044024;28;19916;-82
2023/03/03 11:27:14;;;;;;;;;;;;;;;2.57;77.52;99653.03;5048224;28;20344;-83
2023/03/03 11:29:58;;;;;;;;;;;;;;;2.21;78.76;99637.84;5048344;28;19978;-83
2023/03/03 11:32:23;;;;;;;;;;;;;;;1.30;80.13;99641.28;5065017;28;19913;-83
2023/03/03 11:34:51;;;;;;;;;;;;;;;2.23;79.46;99640.28;5062900;28;19921;-83
2023/03/03 11:37:22;;;;;;;;;;;;;;;2.93;76.91;99638.19;5050383;28;19928;-83
2023/03/03 11:39:49;;;;;;;;;;;;;;;2.73;76.46;99629.19;5060757;28;19916;-83
2023/03/03 11:42:25;;;;;;;;;;;;;;;2.63;76.83;99636.50;5067537;28;20417;-83
2023/03/03 11:45:02;;;;;;;;;;;;;;;2.61;76.20;99628.78;5052217;28;19921;-82
2023/03/03 11:48:06;;;;;;;;;;;;;;;2.57;77.06;99630.16;5050667;28;19926;-83
2023/03/03 11:50:37;;;;;;;;;;;;;;;2.86;77.03;99626.75;5043040;28;20435;-82
2023/03/03 11:53:21;;;;;;;;;;;;;;;2.87;76.86;99618.66;5051065;28;19917;-83
2023/03/03 11:55:51;;;;;;;;;;;;;;;3.28;75.13;99626.94;5048841;28;19916;-82
2023/03/03 11:58:29;;;;;;;;;;;;;;;3.02;75.67;99621.31;5048544;28;19924;-83
2023/03/03 12:01:01;;;;;;;;;;;;;;;3.11;75.29;99616.75;5051747;28;20420;-83
2023/03/03 12:03:53;;;;;;;;;;;;;;;3.21;75.13;99618.13;5044550;28;19939;-83
2023/03/03 12:06:33;;;;;;;;;;;;;;;3.37;75.05;99615.28;5025198;28;19924;-82
2023/03/03 12:08:59;;;;;;;;;;;;;;;2.85;75.39;99604.03;5033735;28;19913;-82
2023/03/03 12:11:34;;;;;;;;;;;;;;;1.99;76.81;99612.31;5042363;28;19924;-81
2023/03/03 12:14:28;;;;;;;;;;;;;;;1.98;77.92;99608.06;5052689;28;19920;-81
2023/03/03 12:16:55;;;;;;;;;;;;;;;2.98;76.91;99609.47;5068092;28;19948;-82
2023/03/03 12:19:39;;;;;;;;;;;;;;;3.02;75.88;99608.13;5048689;28;19943;-82
2023/03/03 12:22:05;;;;;;;;;;;;;;;3.12;75.62;99607.84;5040543;28;20351;-82
2023/03/03 12:24:37;;;;;;;;;;;;;;;2.10;75.40;99609.28;5050776;28;19947;-82
2023/03/03 12:27:09;;;;;;;;;;;;;;;2.13;76.47;99614.22;5066889;28;19923;-82
2023/03/03 12:29:56;;;;;;;;;;;;;;;2.64;78.21;99611.81;5033391;28;19975;-82
2023/03/03 12:32:29;;;;;;;;;;;;;;;2.12;76.31;99599.38;5065908;28;19917;-81
2023/03/03 12:35:03;;;;;;;;;;;;;;;2.05;78.43;99602.91;5054167;28;19917;-82
2023/03/03 12:37:37;;;;;;;;;;;;;;;2.39;77.08;99598.03;5048695;28;20292;-83
2023/03/03 12:40:14;;;;;;;;;;;;;;;1.17;79.60;99598.94;5055815;28;19938;-81
2023/03/03 12:42:57;;;;;;;;;;;;;;;1.37;79.79;99592.28;5063301;28;19936;-81
2023/03/03 12:45:41;;;;;;;;;;;;;;;1.38;79.87;99586.84;5045411;28;19952;-81
2023/03/03 12:48:07;;;;;;;;;;;;;;;1.95;81.26;99583.88;5057918;28;19917;-82
2023/03/03 12:50:57;;;;;;;;;;;;;;;2.69;77.51;99585.72;5051409;28;19916;-81
2023/03/03 12:53:23;;;;;;;;;;;;;;;2.49;77.38;99582.78;5046145;28;20339;-82
2023/03/03 12:55:52;;;;;;;;;;;;;;;2.80;77.46;99586.09;5062805;28;19917;-82
2023/03/03 12:58:19;;;;;;;;;;;;;;;3.31;76.04;99580.91;5049681;28;20484;-83
2023/03/03 13:01:05;;;;;;;;;;;;;;;2.62;75.59;99576.91;5061339;28;20395;-82